Silva, North Dakota
Current Conditions -  °F | °C
As of 2:55 AM on Sunday 23 Nov 2014 (Local Time) from KRUG Reporting Station
Scattered Clouds Scattered Clouds  
Wind Chill: 25°   Ceiling: Unl
Heat Index: 34°   Visibility: 10mi
Dew Point: 30°   Wind: 13mph
Humidity: 87%   Direction: 240°WSW
Pressure: 29.31"   Gusts: NA
Location:  48.2119°N, 99.9965°W
Report Text: KRUG 230855Z AUTO 24011KT 10SM SCT100 01/M01 A2931 RMK AO2
Loading
Personal Weather Stations






























Interactive Weather Map New forecast layout! Learn more

10-Day Weather Forecast

Advertisements
Track Severe Weather on mobile